Time;durP1;ratioP1;P1;durP2;ratioP2;P2;SDS_P1;SDS_P2;PMS_P1;PMS_P2;Temp;Humidity;BMP_temperature;BMP_pressure;BME280_temperature;BME280_humidity;BME280_pressure;Samples;Min_cycle;Max_cycle;Signal;HPM_P1;HPM_P2
2022/09/17 00:01:32;;;;;;;;;2.75;2.75;;;;;;;;5076051;28;45315;-72
2022/09/17 00:04:03;;;;;;;;;3.25;3.25;;;;;;;;5075696;28;45583;-72
2022/09/17 00:06:29;;;;;;;;;0.00;0.00;;;;;;;;5076269;28;45401;-73
2022/09/17 00:08:54;;;;;;;;;3.25;3.25;;;;;;;;5076302;28;45438;-72
2022/09/17 00:11:22;;;;;;;;;3.50;3.50;;;;;;;;5076254;28;45411;-73
2022/09/17 00:13:48;;;;;;;;;3.25;3.25;;;;;;;;5075581;27;45382;-73
2022/09/17 00:16:20;;;;;;;;;3.25;3.25;;;;;;;;5075374;28;45322;-75
2022/09/17 00:18:45;;;;;;;;;3.00;3.00;;;;;;;;5075562;28;45343;-74
2022/09/17 00:21:17;;;;;;;;;2.00;2.00;;;;;;;;5075859;28;45581;-71
2022/09/17 00:23:42;;;;;;;;;2.50;2.50;;;;;;;;5075710;28;45632;-73
2022/09/17 00:26:07;;;;;;;;;4.00;4.00;;;;;;;;5075333;28;45427;-73
2022/09/17 00:28:32;;;;;;;;;2.75;2.75;;;;;;;;5076003;28;45398;-74
2022/09/17 00:30:58;;;;;;;;;1.50;1.50;;;;;;;;5076055;28;45556;-73
2022/09/17 00:33:23;;;;;;;;;3.00;3.00;;;;;;;;5075271;28;45392;-73
2022/09/17 00:35:59;;;;;;;;;1.75;1.75;;;;;;;;5057295;28;46259;-74
2022/09/17 00:38:24;;;;;;;;;3.50;3.50;;;;;;;;5075979;28;45370;-73
2022/09/17 00:40:49;;;;;;;;;2.00;2.00;;;;;;;;5056884;28;45324;-73
2022/09/17 00:43:31;;;;;;;;;3.00;3.00;;;;;;;;5075072;28;46006;-72
2022/09/17 00:45:57;;;;;;;;;2.00;2.00;;;;;;;;5075330;28;45429;-76
2022/09/17 00:48:22;;;;;;;;;1.50;1.50;;;;;;;;5056903;28;45446;-76
2022/09/17 00:50:47;;;;;;;;;2.00;2.00;;;;;;;;5075299;28;45325;-71
2022/09/17 00:53:14;;;;;;;;;4.25;3.00;;;;;;;;5075281;28;45484;-72
2022/09/17 00:55:41;;;;;;;;;2.75;2.75;;;;;;;;5077932;28;45323;-71
2022/09/17 00:58:08;;;;;;;;;1.75;1.75;;;;;;;;5074840;28;45305;-72
2022/09/17 01:00:34;;;;;;;;;2.25;2.25;;;;;;;;5075173;28;45550;-71
2022/09/17 01:02:59;;;;;;;;;1.50;1.50;;;;;;;;5074873;28;45322;-72
2022/09/17 01:05:38;;;;;;;;;1.50;1.50;;;;;;;;5056872;28;45525;-73
2022/09/17 01:08:06;;;;;;;;;2.00;2.00;;;;;;;;5075321;28;45400;-71
2022/09/17 01:10:49;;;;;;;;;1.50;1.50;;;;;;;;5056669;28;45691;-74
2022/09/17 01:13:33;;;;;;;;;2.00;2.00;;;;;;;;5075422;28;45434;-73
2022/09/17 01:16:15;;;;;;;;;2.00;2.00;;;;;;;;5074964;28;45387;-73
2022/09/17 01:18:46;;;;;;;;;2.00;2.00;;;;;;;;5078312;28;45266;-73
2022/09/17 01:21:14;;;;;;;;;1.00;1.00;;;;;;;;5080634;28;45247;-71
2022/09/17 01:23:52;;;;;;;;;2.00;2.00;;;;;;;;5079993;28;45705;-70
2022/09/17 01:26:36;;;;;;;;;1.00;1.00;;;;;;;;5078679;28;45334;-72
2022/09/17 01:29:14;;;;;;;;;2.00;2.00;;;;;;;;5078838;28;45273;-73
2022/09/17 01:31:47;;;;;;;;;2.25;2.25;;;;;;;;5078461;28;45390;-74
2022/09/17 01:34:16;;;;;;;;;1.00;1.00;;;;;;;;5078929;28;45665;-74
2022/09/17 01:36:42;;;;;;;;;1.00;1.00;;;;;;;;5078164;28;45268;-74
2022/09/17 01:39:25;;;;;;;;;1.00;1.00;;;;;;;;5078246;28;45413;-73
2022/09/17 01:42:00;;;;;;;;;1.75;1.75;;;;;;;;5060134;28;45387;-74
2022/09/17 01:44:51;;;;;;;;;0.50;0.50;;;;;;;;5078570;28;46505;-72
2022/09/17 01:47:26;;;;;;;;;2.00;2.00;;;;;;;;5044002;28;45479;-75
2022/09/17 01:49:53;;;;;;;;;3.25;3.25;;;;;;;;5078072;28;45413;-74
2022/09/17 01:52:19;;;;;;;;;2.00;2.00;;;;;;;;5078364;28;45450;-73
2022/09/17 01:54:48;;;;;;;;;2.00;2.00;;;;;;;;5078278;28;46286;-72
2022/09/17 01:57:17;;;;;;;;;2.00;2.00;;;;;;;;5078291;28;45387;-72
2022/09/17 01:59:47;;;;;;;;;2.00;2.00;;;;;;;;5077718;28;45324;-74
2022/09/17 02:02:15;;;;;;;;;2.00;2.00;;;;;;;;5060142;28;45379;-72
2022/09/17 02:04:57;;;;;;;;;3.25;2.75;;;;;;;;5077775;28;45901;-74
2022/09/17 02:07:24;;;;;;;;;5.00;5.00;;;;;;;;5077820;28;45334;-74
2022/09/17 02:09:54;;;;;;;;;4.00;4.00;;;;;;;;5077865;28;45171;-74
2022/09/17 02:12:24;;;;;;;;;6.00;6.00;;;;;;;;5078183;28;45430;-71
2022/09/17 02:14:52;;;;;;;;;3.50;3.50;;;;;;;;5077608;28;46596;-74
2022/09/17 02:17:24;;;;;;;;;6.00;6.00;;;;;;;;5077480;28;45536;-73
2022/09/17 02:19:49;;;;;;;;;5.75;5.75;;;;;;;;5077255;28;45506;-72
2022/09/17 02:22:17;;;;;;;;;6.00;6.00;;;;;;;;5080772;28;45605;-73
2022/09/17 02:25:01;;;;;;;;;;;;;;;;;;;;;
2022/09/17 02:27:30;;;;;;;;;4.25;4.25;;;;;;;;5077651;27;72754;-72
2022/09/17 02:29:57;;;;;;;;;3.00;3.00;;;;;;;;5078685;28;45410;-71
2022/09/17 02:32:23;;;;;;;;;3.00;3.00;;;;;;;;5060334;28;45509;-71
2022/09/17 02:34:48;;;;;;;;;4.00;4.00;;;;;;;;5077417;28;45450;-71
2022/09/17 02:37:14;;;;;;;;;3.00;3.00;;;;;;;;5077239;28;45346;-71
2022/09/17 02:39:40;;;;;;;;;3.00;3.00;;;;;;;;5077147;28;45186;-74
2022/09/17 02:42:05;;;;;;;;;3.25;3.25;;;;;;;;5077374;28;45300;-70
2022/09/17 02:44:37;;;;;;;;;2.00;2.00;;;;;;;;5076981;28;46549;-70
2022/09/17 02:47:09;;;;;;;;;1.50;1.50;;;;;;;;5077244;28;45294;-70
2022/09/17 02:49:34;;;;;;;;;3.00;3.00;;;;;;;;5076027;28;45280;-70
2022/09/17 02:52:20;;;;;;;;;1.00;1.00;;;;;;;;5075508;28;45358;-71
2022/09/17 02:54:54;;;;;;;;;2.00;2.00;;;;;;;;5076912;28;46646;-70
2022/09/17 02:57:22;;;;;;;;;3.25;1.75;;;;;;;;5085198;28;45270;-70
2022/09/17 02:59:55;;;;;;;;;2.75;2.75;;;;;;;;5085395;28;45263;-72
2022/09/17 03:02:26;;;;;;;;;2.50;2.50;;;;;;;;5077049;28;45386;-69
2022/09/17 03:04:52;;;;;;;;;2.75;2.75;;;;;;;;5076503;28;45384;-72
2022/09/17 03:07:18;;;;;;;;;1.50;1.50;;;;;;;;5076554;28;45322;-73
2022/09/17 03:09:44;;;;;;;;;2.00;2.00;;;;;;;;5076521;28;45338;-73
2022/09/17 03:12:10;;;;;;;;;3.25;3.25;;;;;;;;5077074;28;45307;-69
2022/09/17 03:14:35;;;;;;;;;2.00;2.00;;;;;;;;5077180;28;45411;-71
2022/09/17 03:17:00;;;;;;;;;2.00;2.00;;;;;;;;5075722;28;45504;-71
2022/09/17 03:19:26;;;;;;;;;1.75;1.75;;;;;;;;5076295;28;45251;-71
2022/09/17 03:21:52;;;;;;;;;1.25;1.25;;;;;;;;5076717;28;45259;-73
2022/09/17 03:24:17;;;;;;;;;2.00;2.00;;;;;;;;5076271;28;45772;-73
2022/09/17 03:26:42;;;;;;;;;2.00;2.00;;;;;;;;5058205;28;45250;-70
2022/09/17 03:29:08;;;;;;;;;2.00;2.00;;;;;;;;5076495;28;45173;-72
2022/09/17 03:31:33;;;;;;;;;2.00;2.00;;;;;;;;5077029;28;45493;-71
2022/09/17 03:33:58;;;;;;;;;3.00;3.00;;;;;;;;5057819;28;47163;-71
2022/09/17 03:36:23;;;;;;;;;2.25;2.25;;;;;;;;5076072;28;45407;-72
2022/09/17 03:38:52;;;;;;;;;5.75;5.75;;;;;;;;5076128;28;45323;-71
2022/09/17 03:41:17;;;;;;;;;2.50;2.50;;;;;;;;5076543;28;45356;-70
2022/09/17 03:43:43;;;;;;;;;4.00;4.00;;;;;;;;5075774;28;45472;-70
2022/09/17 03:46:08;;;;;;;;;3.00;3.00;;;;;;;;5076149;28;45394;-70
2022/09/17 03:48:35;;;;;;;;;2.75;2.75;;;;;;;;5057700;28;45483;-70
2022/09/17 03:51:01;;;;;;;;;2.00;2.00;;;;;;;;5076436;28;45663;-69
2022/09/17 03:53:26;;;;;;;;;3.50;3.50;;;;;;;;5075809;28;45306;-70
2022/09/17 03:55:51;;;;;;;;;3.00;3.00;;;;;;;;5076373;28;45240;-72
2022/09/17 03:58:17;;;;;;;;;3.00;3.00;;;;;;;;5077452;28;45367;-73
2022/09/17 04:00:42;;;;;;;;;2.25;2.25;;;;;;;;5082862;28;45312;-71
2022/09/17 04:03:08;;;;;;;;;3.25;3.25;;;;;;;;5078890;28;46436;-72
2022/09/17 04:05:33;;;;;;;;;3.00;3.00;;;;;;;;5075834;28;45432;-73
2022/09/17 04:07:58;;;;;;;;;2.25;2.25;;;;;;;;5057460;28;45284;-72
2022/09/17 04:10:23;;;;;;;;;3.00;3.00;;;;;;;;5076657;28;45177;-71
2022/09/17 04:12:49;;;;;;;;;3.00;3.00;;;;;;;;5075769;28;46559;-71
2022/09/17 04:15:14;;;;;;;;;2.50;2.50;;;;;;;;5076024;28;45272;-72
2022/09/17 04:17:39;;;;;;;;;2.00;2.00;;;;;;;;5075540;28;45230;-71
2022/09/17 04:20:06;;;;;;;;;2.25;2.25;;;;;;;;5075988;28;45574;-71
2022/09/17 04:22:31;;;;;;;;;2.00;2.00;;;;;;;;5075810;28;46492;-71
2022/09/17 04:24:56;;;;;;;;;2.50;2.50;;;;;;;;5075354;28;45331;-70
2022/09/17 04:27:21;;;;;;;;;3.00;3.00;;;;;;;;5076432;28;45448;-70
2022/09/17 04:29:46;;;;;;;;;3.00;3.00;;;;;;;;5076789;28;45290;-72
2022/09/17 04:32:12;;;;;;;;;2.25;2.25;;;;;;;;5075893;28;45379;-73
2022/09/17 04:34:37;;;;;;;;;2.00;2.00;;;;;;;;5075407;28;45462;-75
2022/09/17 04:37:02;;;;;;;;;3.00;3.00;;;;;;;;5075687;28;45382;-74
2022/09/17 04:39:27;;;;;;;;;3.00;3.00;;;;;;;;5075747;28;45403;-70
2022/09/17 04:41:53;;;;;;;;;2.50;2.50;;;;;;;;5075675;28;45471;-71
2022/09/17 04:44:19;;;;;;;;;3.00;3.00;;;;;;;;5075841;28;45406;-73
2022/09/17 04:46:44;;;;;;;;;3.00;3.00;;;;;;;;5075434;28;45288;-71
2022/09/17 04:49:10;;;;;;;;;2.00;2.00;;;;;;;;5075505;28;45302;-73
2022/09/17 04:51:35;;;;;;;;;2.00;2.00;;;;;;;;5075032;28;46386;-73
2022/09/17 04:54:00;;;;;;;;;3.00;3.00;;;;;;;;5056862;28;45318;-72
2022/09/17 04:56:25;;;;;;;;;3.00;3.00;;;;;;;;5075491;28;45420;-73
2022/09/17 04:58:50;;;;;;;;;3.00;3.00;;;;;;;;5076332;28;45571;-74
2022/09/17 05:01:17;;;;;;;;;3.00;3.00;;;;;;;;5080696;28;46458;-72
2022/09/17 05:03:42;;;;;;;;;2.00;2.00;;;;;;;;5074997;28;45388;-73
2022/09/17 05:06:08;;;;;;;;;2.75;2.75;;;;;;;;5074932;28;45832;-73
2022/09/17 05:08:33;;;;;;;;;2.00;2.00;;;;;;;;5075343;28;45202;-74
2022/09/17 05:10:58;;;;;;;;;2.00;2.00;;;;;;;;5074909;28;45395;-69
2022/09/17 05:13:23;;;;;;;;;3.25;3.25;;;;;;;;5075139;28;45220;-75
2022/09/17 05:15:49;;;;;;;;;2.00;2.00;;;;;;;;5075348;28;45282;-72
2022/09/17 05:18:14;;;;;;;;;3.00;3.00;;;;;;;;5075194;28;45253;-73
2022/09/17 05:20:39;;;;;;;;;3.00;3.00;;;;;;;;5074757;28;46101;-75
2022/09/17 05:23:04;;;;;;;;;2.75;2.75;;;;;;;;5074838;28;45355;-72
2022/09/17 05:25:29;;;;;;;;;3.00;2.25;;;;;;;;5074951;28;45125;-70
2022/09/17 05:27:55;;;;;;;;;1.75;1.75;;;;;;;;5057004;28;45207;-72
2022/09/17 05:30:20;;;;;;;;;3.00;3.00;;;;;;;;5074599;28;46403;-71
2022/09/17 05:32:46;;;;;;;;;3.00;3.00;;;;;;;;5075037;28;45293;-72
2022/09/17 05:35:11;;;;;;;;;3.00;3.00;;;;;;;;5075357;28;45346;-72
2022/09/17 05:37:36;;;;;;;;;2.00;2.00;;;;;;;;5057011;28;45434;-72
2022/09/17 05:40:03;;;;;;;;;2.75;2.75;;;;;;;;5074942;28;45557;-73
2022/09/17 05:42:29;;;;;;;;;2.00;2.00;;;;;;;;5075436;28;45358;-72
2022/09/17 05:44:54;;;;;;;;;3.00;3.00;;;;;;;;5074977;28;45381;-73
2022/09/17 05:47:19;;;;;;;;;2.00;2.00;;;;;;;;5075725;28;45422;-75
2022/09/17 05:49:44;;;;;;;;;3.00;3.00;;;;;;;;5074624;28;45287;-73
2022/09/17 05:52:09;;;;;;;;;2.00;2.00;;;;;;;;5075285;28;45347;-74
2022/09/17 05:54:35;;;;;;;;;2.25;2.25;;;;;;;;5075191;28;45429;-73
2022/09/17 05:57:00;;;;;;;;;2.50;2.50;;;;;;;;5075037;28;45418;-71
2022/09/17 05:59:26;;;;;;;;;2.00;2.00;;;;;;;;5074624;28;45283;-72
2022/09/17 06:01:52;;;;;;;;;2.75;2.75;;;;;;;;5076998;28;45226;-70
2022/09/17 06:04:17;;;;;;;;;2.00;2.00;;;;;;;;5077511;28;45441;-70
2022/09/17 06:06:42;;;;;;;;;2.00;2.00;;;;;;;;5077775;28;45199;-74
2022/09/17 06:09:07;;;;;;;;;3.50;3.50;;;;;;;;5078037;28;46348;-72
2022/09/17 06:11:33;;;;;;;;;2.00;2.00;;;;;;;;5077894;28;45321;-69
2022/09/17 06:13:58;;;;;;;;;2.25;2.25;;;;;;;;5060526;28;45591;-71
2022/09/17 06:16:24;;;;;;;;;4.00;4.00;;;;;;;;5077841;28;45320;-70
2022/09/17 06:18:51;;;;;;;;;3.00;3.00;;;;;;;;5077142;28;46430;-74
2022/09/17 06:21:17;;;;;;;;;3.00;3.00;;;;;;;;5077349;28;45404;-71
2022/09/17 06:23:42;;;;;;;;;3.00;3.00;;;;;;;;5077341;28;45371;-72
2022/09/17 06:26:08;;;;;;;;;3.00;3.00;;;;;;;;5060010;28;45292;-74
2022/09/17 06:28:33;;;;;;;;;2.00;2.00;;;;;;;;5077981;28;45437;-72
2022/09/17 06:30:59;;;;;;;;;3.75;3.75;;;;;;;;5077609;28;45478;-73
2022/09/17 06:33:25;;;;;;;;;3.00;3.00;;;;;;;;5058800;28;45316;-73
2022/09/17 06:36:01;;;;;;;;;2.00;2.00;;;;;;;;5059052;28;45636;-74
2022/09/17 06:38:27;;;;;;;;;3.50;3.50;;;;;;;;5076946;28;45288;-74
2022/09/17 06:40:52;;;;;;;;;2.75;2.75;;;;;;;;5076974;28;45355;-72
2022/09/17 06:43:18;;;;;;;;;2.00;2.00;;;;;;;;5077191;28;45406;-75
2022/09/17 06:45:43;;;;;;;;;4.00;4.00;;;;;;;;5077813;28;45384;-76
2022/09/17 06:48:08;;;;;;;;;2.75;2.75;;;;;;;;5076813;28;46323;-72
2022/09/17 06:50:34;;;;;;;;;1.50;1.50;;;;;;;;5077082;28;45410;-75
2022/09/17 06:52:59;;;;;;;;;3.00;3.00;;;;;;;;5058605;28;45182;-75
2022/09/17 06:55:24;;;;;;;;;3.00;3.00;;;;;;;;5077568;28;45467;-73
2022/09/17 06:57:49;;;;;;;;;2.75;2.75;;;;;;;;5077394;28;45286;-73
2022/09/17 07:00:15;;;;;;;;;2.50;2.50;;;;;;;;5077594;28;45385;-73
2022/09/17 07:02:40;;;;;;;;;3.00;3.00;;;;;;;;5081143;28;45355;-70
2022/09/17 07:05:06;;;;;;;;;4.50;4.00;;;;;;;;5076866;28;45526;-72
2022/09/17 07:07:31;;;;;;;;;3.75;3.75;;;;;;;;5077244;28;45436;-71
2022/09/17 07:09:56;;;;;;;;;2.00;2.00;;;;;;;;5076937;28;45374;-76
2022/09/17 07:12:21;;;;;;;;;4.00;4.00;;;;;;;;5077885;28;45369;-71
2022/09/17 07:14:47;;;;;;;;;4.00;4.00;;;;;;;;5076902;28;45613;-76
2022/09/17 07:17:13;;;;;;;;;2.75;2.75;;;;;;;;5058932;28;45807;-72
2022/09/17 07:19:38;;;;;;;;;18.00;17.75;;;;;;;;5076048;28;45548;-72
2022/09/17 07:22:03;;;;;;;;;2.50;2.50;;;;;;;;5077191;27;45825;-72
2022/09/17 07:24:28;;;;;;;;;2.00;2.00;;;;;;;;5075789;28;45671;-72
2022/09/17 07:26:54;;;;;;;;;3.00;3.00;;;;;;;;5058184;28;47041;-73
2022/09/17 07:29:20;;;;;;;;;3.00;3.00;;;;;;;;5076252;28;45297;-71
2022/09/17 07:31:46;;;;;;;;;4.75;4.75;;;;;;;;5057856;28;45330;-72
2022/09/17 07:34:11;;;;;;;;;5.00;5.00;;;;;;;;5076535;28;45344;-72
2022/09/17 07:36:37;;;;;;;;;3.00;3.00;;;;;;;;5076213;28;45421;-72
2022/09/17 07:39:02;;;;;;;;;2.00;2.00;;;;;;;;5058011;28;45430;-74
2022/09/17 07:41:27;;;;;;;;;2.75;2.75;;;;;;;;5076744;28;45229;-74
2022/09/17 07:43:55;;;;;;;;;5.25;5.25;;;;;;;;5076190;28;45286;-71
2022/09/17 07:46:21;;;;;;;;;2.25;2.25;;;;;;;;5057457;28;47473;-75
2022/09/17 07:48:46;;;;;;;;;2.00;2.00;;;;;;;;5075802;28;45735;-71
2022/09/17 07:51:19;;;;;;;;;1.75;1.75;;;;;;;;5075914;28;45467;-70
2022/09/17 07:53:45;;;;;;;;;3.00;3.00;;;;;;;;5076223;28;45297;-71
2022/09/17 07:56:10;;;;;;;;;1.00;1.00;;;;;;;;5075587;28;46230;-71
2022/09/17 07:58:35;;;;;;;;;1.00;1.00;;;;;;;;5076124;28;45361;-75
2022/09/17 08:01:01;;;;;;;;;2.00;2.00;;;;;;;;5057602;28;45189;-71
2022/09/17 08:03:26;;;;;;;;;2.00;2.00;;;;;;;;5078895;28;45182;-74
2022/09/17 08:05:51;;;;;;;;;1.25;1.25;;;;;;;;5075857;28;45286;-71
2022/09/17 08:08:16;;;;;;;;;1.75;1.75;;;;;;;;5075808;28;45538;-70
2022/09/17 08:10:42;;;;;;;;;1.75;1.75;;;;;;;;5057191;28;45418;-70
2022/09/17 08:13:07;;;;;;;;;2.25;2.25;;;;;;;;5076092;28;45621;-71
2022/09/17 08:15:32;;;;;;;;;3.25;3.25;;;;;;;;5076053;28;46215;-75
2022/09/17 08:17:57;;;;;;;;;2.00;2.00;;;;;;;;5075910;28;45323;-70
2022/09/17 08:20:25;;;;;;;;;1.00;1.00;;;;;;;;5076167;28;45343;-74
2022/09/17 08:22:56;;;;;;;;;1.25;1.25;;;;;;;;5076073;28;45584;-73
2022/09/17 08:25:21;;;;;;;;;1.00;1.00;;;;;;;;5075129;28;46189;-72
2022/09/17 08:27:46;;;;;;;;;1.00;1.00;;;;;;;;5074853;28;45250;-72
2022/09/17 08:30:11;;;;;;;;;1.00;1.00;;;;;;;;5075619;28;45361;-70
2022/09/17 08:32:37;;;;;;;;;0.00;0.00;;;;;;;;5057677;28;45417;-74
2022/09/17 08:35:02;;;;;;;;;1.50;1.50;;;;;;;;5075346;28;46021;-75
2022/09/17 08:37:30;;;;;;;;;0.00;0.00;;;;;;;;5075337;28;45350;-72
2022/09/17 08:39:57;;;;;;;;;0.00;0.00;;;;;;;;5057539;28;45449;-76
2022/09/17 08:42:31;;;;;;;;;0.75;0.75;;;;;;;;5075430;28;45347;-77
2022/09/17 08:44:58;;;;;;;;;0.75;0.75;;;;;;;;5076162;28;45376;-73
2022/09/17 08:47:35;;;;;;;;;0.25;0.25;;;;;;;;5076357;27;45200;-73
2022/09/17 08:50:04;;;;;;;;;1.00;1.00;;;;;;;;5075092;28;45276;-75
2022/09/17 08:52:29;;;;;;;;;1.00;1.00;;;;;;;;5075671;28;45468;-72
2022/09/17 08:54:54;;;;;;;;;1.00;1.00;;;;;;;;5074958;28;47185;-74
2022/09/17 08:57:22;;;;;;;;;1.00;1.00;;;;;;;;5075417;28;45277;-73
2022/09/17 08:59:53;;;;;;;;;1.00;1.00;;;;;;;;5075462;28;45232;-70
2022/09/17 09:02:24;;;;;;;;;1.00;1.00;;;;;;;;5075724;27;45276;-72
2022/09/17 09:05:01;;;;;;;;;1.50;1.50;;;;;;;;5077301;28;45291;-73
2022/09/17 09:07:30;;;;;;;;;1.00;1.00;;;;;;;;5075057;28;45168;-73
2022/09/17 09:10:04;;;;;;;;;0.00;0.00;;;;;;;;5074719;28;45446;-71
2022/09/17 09:12:33;;;;;;;;;1.00;1.00;;;;;;;;5075716;28;45526;-70
2022/09/17 09:14:58;;;;;;;;;1.00;1.00;;;;;;;;5074541;28;46626;-71
2022/09/17 09:17:27;;;;;;;;;1.00;1.00;;;;;;;;5074582;28;45150;-75
2022/09/17 09:19:53;;;;;;;;;0.25;0.25;;;;;;;;5074776;28;45351;-72
2022/09/17 09:22:24;;;;;;;;;1.00;1.00;;;;;;;;5074546;28;45395;-75
2022/09/17 09:24:55;;;;;;;;;1.00;1.00;;;;;;;;5074478;28;45479;-72
2022/09/17 09:27:26;;;;;;;;;1.00;1.00;;;;;;;;5074201;28;45373;-72
2022/09/17 09:29:52;;;;;;;;;1.00;1.00;;;;;;;;5056578;28;45410;-72
2022/09/17 09:32:24;;;;;;;;;1.00;1.00;;;;;;;;5074907;28;45433;-72
2022/09/17 09:34:49;;;;;;;;;2.00;2.00;;;;;;;;5074710;28;46572;-73
2022/09/17 09:37:29;;;;;;;;;1.50;1.50;;;;;;;;5075232;28;45221;-74
2022/09/17 09:40:01;;;;;;;;;2.00;2.00;;;;;;;;5078215;28;45479;-72
2022/09/17 09:42:31;;;;;;;;;0.50;0.50;;;;;;;;5078132;28;45322;-73
2022/09/17 09:44:57;;;;;;;;;1.00;1.00;;;;;;;;5077686;28;46441;-72
2022/09/17 09:47:37;;;;;;;;;1.25;1.25;;;;;;;;5059549;28;45281;-71
2022/09/17 09:50:05;;;;;;;;;1.25;1.25;;;;;;;;5059424;28;45496;-72
2022/09/17 09:52:49;;;;;;;;;2.00;2.00;;;;;;;;5059704;28;45342;-72
2022/09/17 09:55:33;;;;;;;;;1.00;1.00;;;;;;;;5059092;28;48239;-75
2022/09/17 09:58:05;;;;;;;;;1.00;1.00;;;;;;;;5077634;28;45435;-70
2022/09/17 10:00:35;;;;;;;;;1.00;1.00;;;;;;;;5077937;28;45426;-73
2022/09/17 10:03:03;;;;;;;;;0.25;0.25;;;;;;;;5077877;28;45442;-72
2022/09/17 10:05:29;;;;;;;;;2.00;2.00;;;;;;;;5061768;28;46568;-71
2022/09/17 10:07:54;;;;;;;;;1.00;1.00;;;;;;;;5077195;28;45351;-72
2022/09/17 10:10:19;;;;;;;;;2.00;1.00;;;;;;;;5077486;28;45247;-73
2022/09/17 10:12:45;;;;;;;;;1.50;1.50;;;;;;;;5077732;28;45636;-70
2022/09/17 10:15:24;;;;;;;;;1.75;1.75;;;;;;;;5077950;28;46241;-71
2022/09/17 10:18:08;;;;;;;;;1.00;1.00;;;;;;;;5077461;28;45527;-73
2022/09/17 10:20:33;;;;;;;;;0.00;0.00;;;;;;;;5058780;28;45435;-73
2022/09/17 10:23:05;;;;;;;;;0.00;0.00;;;;;;;;5077581;27;45288;-72
2022/09/17 10:25:31;;;;;;;;;1.50;1.50;;;;;;;;5077649;28;46671;-73
2022/09/17 10:27:58;;;;;;;;;0.75;0.75;;;;;;;;5059091;28;45288;-75
2022/09/17 10:30:24;;;;;;;;;1.75;1.75;;;;;;;;5077162;28;45466;-72
2022/09/17 10:33:23;;;;;;;;;0.50;0.50;;;;;;;;5077450;28;45326;-72
2022/09/17 10:36:00;;;;;;;;;0.00;0.00;;;;;;;;5043753;28;46160;-72
2022/09/17 10:38:30;;;;;;;;;0.00;0.00;;;;;;;;5077276;28;45389;-75
2022/09/17 10:41:12;;;;;;;;;1.00;1.00;;;;;;;;5059055;28;45284;-75
2022/09/17 10:43:38;;;;;;;;;0.25;0.25;;;;;;;;5058276;28;45343;-71
2022/09/17 10:46:03;;;;;;;;;1.00;1.00;;;;;;;;5076557;28;46309;-74
2022/09/17 10:48:32;;;;;;;;;0.00;0.00;;;;;;;;5057885;28;45382;-72
2022/09/17 10:51:00;;;;;;;;;2.00;2.00;;;;;;;;5076366;28;45303;-71
2022/09/17 10:53:26;;;;;;;;;1.50;1.50;;;;;;;;5076622;28;45461;-71
2022/09/17 10:56:10;;;;;;;;;1.00;1.00;;;;;;;;5076329;28;45437;-71
2022/09/17 10:58:47;;;;;;;;;4.75;4.75;;;;;;;;5054748;28;45376;-74
2022/09/17 11:01:31;;;;;;;;;1.00;1.00;;;;;;;;5055267;28;45489;-71
2022/09/17 11:04:05;;;;;;;;;1.00;1.00;;;;;;;;5057843;28;45625;-71
2022/09/17 11:06:36;;;;;;;;;0.25;0.25;;;;;;;;5056999;28;45434;-71
2022/09/17 11:09:11;;;;;;;;;0.00;0.00;;;;;;;;5056751;28;45245;-76
2022/09/17 11:11:36;;;;;;;;;0.00;0.00;;;;;;;;5055238;28;45373;-70
2022/09/17 11:14:32;;;;;;;;;0.00;0.00;;;;;;;;5056857;28;45549;-72
2022/09/17 11:17:16;;;;;;;;;0.00;0.00;;;;;;;;5056106;28;45265;-71
2022/09/17 11:20:02;;;;;;;;;5.00;5.00;;;;;;;;5056128;28;45533;-72
2022/09/17 11:22:30;;;;;;;;;1.00;1.00;;;;;;;;5037524;28;45292;-73
2022/09/17 11:25:14;;;;;;;;;0.00;0.00;;;;;;;;5054759;28;45452;-71
2022/09/17 11:27:54;;;;;;;;;0.00;0.00;;;;;;;;5055121;28;46131;-75
2022/09/17 11:30:20;;;;;;;;;0.00;0.00;;;;;;;;5055741;28;45410;-74
2022/09/17 11:32:56;;;;;;;;;0.75;0.75;;;;;;;;5056014;28;45399;-72
2022/09/17 11:35:21;;;;;;;;;0.25;0.25;;;;;;;;5055938;28;45273;-74
2022/09/17 11:38:02;;;;;;;;;1.00;1.00;;;;;;;;5056041;28;46044;-74
2022/09/17 11:40:37;;;;;;;;;1.00;1.00;;;;;;;;5055963;28;45380;-72
2022/09/17 11:43:18;;;;;;;;;0.00;0.00;;;;;;;;5055490;28;45363;-74
2022/09/17 11:45:51;;;;;;;;;0.25;0.25;;;;;;;;5055778;28;45454;-74
2022/09/17 11:48:19;;;;;;;;;0.00;0.00;;;;;;;;5053886;28;48404;-71
2022/09/17 11:51:04;;;;;;;;;0.00;0.00;;;;;;;;5055553;28;45434;-76
2022/09/17 11:53:34;;;;;;;;;0.00;0.00;;;;;;;;5054766;27;45170;-71
2022/09/17 11:56:02;;;;;;;;;0.00;0.00;;;;;;;;5055683;28;45706;-75
2022/09/17 11:58:40;;;;;;;;;0.00;0.00;;;;;;;;5055013;28;45694;-72
2022/09/17 12:01:08;;;;;;;;;0.00;0.00;;;;;;;;5053078;28;45974;-74
2022/09/17 12:03:35;;;;;;;;;0.00;0.00;;;;;;;;5054991;28;45300;-73
2022/09/17 12:06:20;;;;;;;;;0.25;0.25;;;;;;;;5058636;28;45388;-74
2022/09/17 12:08:52;;;;;;;;;0.00;0.00;;;;;;;;5054964;28;45466;-73
2022/09/17 12:11:26;;;;;;;;;0.00;0.00;;;;;;;;5055398;28;45395;-77
2022/09/17 12:13:53;;;;;;;;;0.00;0.00;;;;;;;;5054863;28;45339;-73
2022/09/17 12:16:23;;;;;;;;;0.25;0.25;;;;;;;;5055205;28;45487;-75
2022/09/17 12:19:07;;;;;;;;;0.00;0.00;;;;;;;;5054523;28;45904;-73
2022/09/17 12:21:36;;;;;;;;;0.00;0.00;;;;;;;;5054702;28;45285;-71
2022/09/17 12:24:02;;;;;;;;;0.00;0.00;;;;;;;;5055104;28;45455;-71
2022/09/17 12:26:44;;;;;;;;;0.00;0.00;;;;;;;;5055365;28;45530;-74
2022/09/17 12:29:15;;;;;;;;;1.00;1.00;;;;;;;;5055106;28;45351;-73
2022/09/17 12:31:46;;;;;;;;;0.00;0.00;;;;;;;;5054921;28;45301;-75
2022/09/17 12:34:20;;;;;;;;;0.00;0.00;;;;;;;;5054727;28;45326;-71
2022/09/17 12:36:51;;;;;;;;;0.00;0.00;;;;;;;;5054844;28;45377;-73
2022/09/17 12:39:34;;;;;;;;;1.00;1.00;;;;;;;;5055037;28;46360;-71
2022/09/17 12:41:59;;;;;;;;;1.50;0.50;;;;;;;;5054352;28;45351;-76
2022/09/17 12:44:34;;;;;;;;;1.00;1.00;;;;;;;;5054430;28;45306;-74
2022/09/17 12:47:18;;;;;;;;;0.00;0.00;;;;;;;;5054875;28;45568;-70
2022/09/17 12:49:53;;;;;;;;;0.00;0.00;;;;;;;;5054299;28;45921;-74
2022/09/17 12:52:37;;;;;;;;;0.25;0.25;;;;;;;;5054644;28;45413;-73
2022/09/17 12:55:05;;;;;;;;;0.00;0.00;;;;;;;;5036831;28;45407;-70
2022/09/17 12:57:42;;;;;;;;;0.00;0.00;;;;;;;;5054869;28;45241;-72
2022/09/17 13:00:09;;;;;;;;;1.00;1.00;;;;;;;;5054210;28;46605;-72
2022/09/17 13:02:46;;;;;;;;;0.00;0.00;;;;;;;;5054870;28;45458;-74
2022/09/17 13:05:24;;;;;;;;;0.00;0.00;;;;;;;;5054629;28;45402;-71
2022/09/17 13:08:01;;;;;;;;;1.50;1.50;;;;;;;;5036845;28;45286;-71
2022/09/17 13:10:45;;;;;;;;;0.00;0.00;;;;;;;;5053963;28;45593;-70
2022/09/17 13:13:13;;;;;;;;;0.00;0.00;;;;;;;;5037844;28;45294;-72
2022/09/17 13:15:39;;;;;;;;;0.00;0.00;;;;;;;;5057926;28;45538;-70
2022/09/17 13:18:04;;;;;;;;;0.00;0.00;;;;;;;;5057844;28;45542;-72
2022/09/17 13:20:32;;;;;;;;;0.00;0.00;;;;;;;;5057722;28;46504;-70
2022/09/17 13:22:58;;;;;;;;;1.00;1.00;;;;;;;;5058071;28;45406;-73
2022/09/17 13:25:24;;;;;;;;;0.50;0.50;;;;;;;;5058143;28;45341;-71
2022/09/17 13:27:50;;;;;;;;;0.00;0.00;;;;;;;;5058430;28;45521;-74
2022/09/17 13:30:17;;;;;;;;;0.00;0.00;;;;;;;;5057657;28;47107;-74
2022/09/17 13:32:43;;;;;;;;;0.00;0.00;;;;;;;;5057410;28;45242;-70
2022/09/17 13:35:11;;;;;;;;;0.00;0.00;;;;;;;;5057038;28;45349;-71
2022/09/17 13:37:51;;;;;;;;;0.50;0.50;;;;;;;;5057009;28;45349;-72
2022/09/17 13:40:33;;;;;;;;;0.00;0.00;;;;;;;;5038627;28;47919;-72
2022/09/17 13:43:05;;;;;;;;;0.00;0.00;;;;;;;;5057050;28;45787;-71
2022/09/17 13:45:32;;;;;;;;;0.00;0.00;;;;;;;;5057041;28;45418;-71
2022/09/17 13:47:57;;;;;;;;;0.00;0.00;;;;;;;;5057118;28;45512;-71
2022/09/17 13:50:25;;;;;;;;;0.00;0.00;;;;;;;;5056755;28;45472;-71
2022/09/17 13:52:51;;;;;;;;;0.00;0.00;;;;;;;;5056701;28;45333;-74
2022/09/17 13:55:37;;;;;;;;;0.00;0.00;;;;;;;;5056905;28;45310;-76
2022/09/17 13:58:05;;;;;;;;;0.00;0.00;;;;;;;;5057367;28;45577;-75
2022/09/17 14:00:46;;;;;;;;;0.00;0.00;;;;;;;;5056920;28;45482;-74
2022/09/17 14:03:29;;;;;;;;;0.00;0.00;;;;;;;;5056502;28;45299;-73
2022/09/17 14:06:19;;;;;;;;;0.00;0.00;;;;;;;;5058044;28;45383;-72
2022/09/17 14:11:22;;;;;;;;;0.00;0.00;;;;;;;;5056654;28;45954;-72
2022/09/17 14:14:09;;;;;;;;;0.00;0.00;;;;;;;;5056593;28;45337;-73
2022/09/17 14:16:45;;;;;;;;;0.00;0.00;;;;;;;;5056775;28;45423;-74
2022/09/17 14:19:17;;;;;;;;;0.00;0.00;;;;;;;;5056841;28;45559;-75
2022/09/17 14:21:45;;;;;;;;;0.00;0.00;;;;;;;;5056517;28;46681;-74
2022/09/17 14:24:21;;;;;;;;;0.00;0.00;;;;;;;;5056601;28;45390;-74
2022/09/17 14:26:56;;;;;;;;;0.00;0.00;;;;;;;;5056863;28;45446;-72
2022/09/17 14:29:32;;;;;;;;;0.00;0.00;;;;;;;;5057210;28;45386;-74
2022/09/17 14:31:58;;;;;;;;;0.00;0.00;;;;;;;;5056342;28;45269;-75
2022/09/17 14:34:24;;;;;;;;;0.00;0.00;;;;;;;;5056867;28;45309;-76
2022/09/17 14:36:51;;;;;;;;;0.00;0.00;;;;;;;;5056573;28;45325;-74
2022/09/17 14:39:20;;;;;;;;;0.00;0.00;;;;;;;;5056759;28;45536;-75
2022/09/17 14:41:47;;;;;;;;;0.00;0.00;;;;;;;;5056270;28;46149;-72
2022/09/17 14:44:19;;;;;;;;;0.00;0.00;;;;;;;;5038146;28;45958;-74
2022/09/17 14:46:57;;;;;;;;;0.00;0.00;;;;;;;;5037896;28;45392;-71
2022/09/17 14:49:27;;;;;;;;;0.00;0.00;;;;;;;;5056272;28;45515;-70
2022/09/17 14:51:53;;;;;;;;;0.00;0.00;;;;;;;;5037966;28;46577;-73
2022/09/17 14:54:23;;;;;;;;;0.00;0.00;;;;;;;;5056756;28;45436;-74
2022/09/17 14:56:52;;;;;;;;;0.00;0.00;;;;;;;;5056187;28;45364;-70
2022/09/17 14:59:26;;;;;;;;;0.25;0.25;;;;;;;;5037540;28;45341;-72